Time;durP1;ratioP1;P1;durP2;ratioP2;P2;SDS_P1;SDS_P2;PMS_P1;PMS_P2;Temp;Humidity;BMP_temperature;BMP_pressure;BME280_temperature;BME280_humidity;BME280_pressure;Samples;Min_cycle;Max_cycle;Signal;HPM_P1;HPM_P2
2021/06/30 00:03:27;;;;;;;5.35;2.90;;;17.50;99.90;;;;;;12384325;28;20080;-41
2021/06/30 00:09:33;;;;;;;6.30;3.20;;;17.60;99.90;;;;;;12387191;28;20084;-39
2021/06/30 00:15:41;;;;;;;5.45;3.80;;;17.50;99.90;;;;;;12392565;28;20124;-41
2021/06/30 00:21:48;;;;;;;13.80;7.88;;;17.50;99.90;;;;;;12386733;28;20042;-39
2021/06/30 00:27:55;;;;;;;18.80;12.95;;;17.50;99.90;;;;;;12380315;28;20145;-41
2021/06/30 00:34:03;;;;;;;19.92;13.35;;;17.50;99.90;;;;;;12371147;28;20493;-39
2021/06/30 00:40:11;;;;;;;20.73;14.07;;;17.50;99.90;;;;;;12382934;28;20081;-39
2021/06/30 00:46:26;;;;;;;19.08;12.60;;;17.70;99.90;;;;;;12381870;28;20073;-41
2021/06/30 00:52:33;;;;;;;17.00;11.77;;;17.70;99.90;;;;;;12383768;28;20849;-39
2021/06/30 00:58:40;;;;;;;19.27;13.68;;;17.70;99.90;;;;;;12380621;28;20141;-39
2021/06/30 01:04:47;;;;;;;19.77;12.40;;;17.50;99.90;;;;;;12387364;28;20049;-40
2021/06/30 01:10:54;;;;;;;18.08;11.75;;;17.30;99.90;;;;;;12385125;28;20069;-39
2021/06/30 01:17:04;;;;;;;19.30;12.18;;;17.20;99.90;;;;;;12387357;28;20057;-40
2021/06/30 01:23:11;;;;;;;17.35;11.95;;;17.20;99.90;;;;;;12389231;28;20780;-39
2021/06/30 01:29:22;;;;;;;21.02;13.68;;;17.10;99.90;;;;;;12386255;28;20141;-40
2021/06/30 01:35:29;;;;;;;17.88;13.23;;;17.00;99.90;;;;;;12383855;28;20476;-41
2021/06/30 01:41:35;;;;;;;19.48;13.45;;;17.00;99.90;;;;;;12388195;28;20132;-39
2021/06/30 01:47:42;;;;;;;24.33;14.63;;;16.90;99.90;;;;;;12381182;28;20049;-40
2021/06/30 01:53:53;;;;;;;20.30;14.60;;;16.90;99.90;;;;;;12393737;28;20065;-42
2021/06/30 01:59:59;;;;;;;21.55;14.65;;;16.80;99.90;;;;;;12390836;28;20517;-41
2021/06/30 02:06:06;;;;;;;25.52;14.73;;;16.70;99.90;;;;;;12397217;28;20133;-39
2021/06/30 02:12:13;;;;;;;23.25;15.02;;;16.70;99.90;;;;;;12397145;28;20570;-40
2021/06/30 02:18:20;;;;;;;21.50;16.00;;;16.70;99.90;;;;;;12394627;28;20137;-40
2021/06/30 02:24:26;;;;;;;23.38;16.05;;;16.80;99.90;;;;;;12391580;28;20052;-41
2021/06/30 02:30:33;;;;;;;32.17;17.42;;;17.00;99.90;;;;;;12397121;28;20045;-40
2021/06/30 02:36:40;;;;;;;32.35;18.75;;;16.90;99.90;;;;;;12388097;28;20082;-40
2021/06/30 02:42:48;;;;;;;38.78;20.48;;;16.90;99.90;;;;;;12392435;28;20558;-40
2021/06/30 02:48:54;;;;;;;30.30;19.25;;;16.80;99.90;;;;;;12395804;28;20152;-41
2021/06/30 02:55:03;;;;;;;40.08;21.30;;;16.90;99.90;;;;;;12387797;28;20166;-40
2021/06/30 03:01:10;;;;;;;38.35;22.25;;;16.80;99.90;;;;;;12386968;28;20169;-40
2021/06/30 03:07:17;;;;;;;41.80;23.05;;;16.70;99.90;;;;;;12388344;28;20089;-39
2021/06/30 03:13:24;;;;;;;41.05;22.77;;;16.80;99.90;;;;;;12391494;28;20070;-41
2021/06/30 03:19:31;;;;;;;32.80;20.35;;;16.80;99.90;;;;;;12394337;28;20092;-40
2021/06/30 03:25:38;;;;;;;36.78;20.98;;;16.90;99.90;;;;;;12388559;28;20147;-41
2021/06/30 03:31:46;;;;;;;34.40;20.17;;;16.90;99.90;;;;;;12387403;28;20533;-40
2021/06/30 03:37:53;;;;;;;31.83;20.17;;;16.80;99.90;;;;;;12390812;28;20157;-40
2021/06/30 03:44:00;;;;;;;33.65;20.52;;;16.70;99.90;;;;;;12393661;28;20042;-40
2021/06/30 03:50:07;;;;;;;28.30;19.20;;;16.70;99.90;;;;;;12390845;28;20720;-40
2021/06/30 03:56:14;;;;;;;28.38;17.77;;;16.70;99.90;;;;;;12390940;28;20757;-39
2021/06/30 04:02:20;;;;;;;23.15;16.95;;;16.70;99.90;;;;;;12393634;28;20532;-39
2021/06/30 04:08:27;;;;;;;22.10;15.18;;;16.70;99.90;;;;;;12392527;28;20050;-39
2021/06/30 04:14:34;;;;;;;27.55;15.48;;;16.90;99.90;;;;;;12388436;28;20133;-39
2021/06/30 04:20:42;;;;;;;20.23;13.50;;;17.00;99.90;;;;;;12393301;28;20070;-39
2021/06/30 04:26:49;;;;;;;21.88;13.50;;;16.90;99.90;;;;;;12384805;28;20073;-39
2021/06/30 04:32:56;;;;;;;18.70;12.65;;;17.00;99.90;;;;;;12391858;28;20086;-40
2021/06/30 04:39:03;;;;;;;20.50;13.07;;;17.00;99.90;;;;;;12389357;28;20839;-40
2021/06/30 04:45:10;;;;;;;23.23;13.20;;;16.90;99.90;;;;;;12387244;28;20065;-40
2021/06/30 04:51:16;;;;;;;20.75;12.40;;;16.90;99.90;;;;;;12388413;28;20902;-39
2021/06/30 04:57:23;;;;;;;18.90;11.68;;;16.90;99.90;;;;;;12386696;28;20136;-40
2021/06/30 05:03:30;;;;;;;17.70;11.68;;;16.90;99.90;;;;;;12392995;28;20035;-39
2021/06/30 05:09:37;;;;;;;18.58;10.93;;;17.00;99.90;;;;;;12388307;28;20087;-39
2021/06/30 05:15:44;;;;;;;21.00;10.95;;;16.90;99.90;;;;;;12387102;28;20145;-40
2021/06/30 05:21:51;;;;;;;17.33;11.30;;;16.80;99.90;;;;;;12388428;28;20585;-40
2021/06/30 05:27:58;;;;;;;19.67;11.07;;;16.50;99.90;;;;;;12395127;28;20452;-39
2021/06/30 05:34:04;;;;;;;14.73;10.18;;;16.40;99.90;;;;;;12398860;28;20486;-40
2021/06/30 05:40:11;;;;;;;21.30;10.55;;;16.60;99.90;;;;;;12397894;28;20952;-39
2021/06/30 05:46:18;;;;;;;13.05;9.20;;;16.40;99.90;;;;;;12396402;28;20046;-39
2021/06/30 05:52:25;;;;;;;13.98;8.40;;;16.20;99.90;;;;;;12399936;28;20169;-40
2021/06/30 05:58:33;;;;;;;12.02;8.30;;;16.10;99.90;;;;;;12396787;28;20105;-39
2021/06/30 06:04:39;;;;;;;13.88;7.10;;;16.10;99.90;;;;;;12401577;28;20069;-39
2021/06/30 06:10:46;;;;;;;10.27;7.25;;;16.40;99.90;;;;;;12399476;28;20053;-40
2021/06/30 06:16:54;;;;;;;9.07;7.78;;;16.50;99.90;;;;;;12398984;28;20070;-39
2021/06/30 06:23:01;;;;;;;10.80;7.65;;;16.30;99.90;;;;;;12385247;28;20211;-40
2021/06/30 06:29:09;;;;;;;11.60;7.50;;;16.30;99.90;;;;;;12396751;28;20054;-41
2021/06/30 06:35:16;;;;;;;12.90;7.30;;;16.20;99.90;;;;;;12399995;28;20541;-39
2021/06/30 06:41:22;;;;;;;11.55;7.78;;;16.10;99.90;;;;;;12395744;28;20070;-40
2021/06/30 06:47:29;;;;;;;13.85;7.50;;;16.20;99.90;;;;;;12398664;28;20622;-40
2021/06/30 06:53:36;;;;;;;13.10;7.55;;;16.30;99.90;;;;;;12390766;28;20133;-39
2021/06/30 06:59:43;;;;;;;11.30;7.60;;;16.30;99.90;;;;;;12401679;28;20057;-39
2021/06/30 07:05:50;;;;;;;12.18;7.85;;;16.30;99.90;;;;;;12389138;28;20073;-40
2021/06/30 07:11:57;;;;;;;12.40;8.13;;;16.30;99.90;;;;;;12397933;28;20054;-41
2021/06/30 07:18:04;;;;;;;13.73;8.90;;;16.40;99.90;;;;;;12399980;28;20058;-40
2021/06/30 07:24:10;;;;;;;13.70;9.05;;;16.50;99.90;;;;;;12389651;28;20605;-39
2021/06/30 07:30:17;;;;;;;13.60;8.95;;;16.80;99.90;;;;;;12393708;28;20459;-39
2021/06/30 07:36:24;;;;;;;14.23;9.65;;;16.60;99.90;;;;;;12393085;28;20085;-40
2021/06/30 07:42:31;;;;;;;13.57;9.90;;;16.60;99.90;;;;;;12390162;28;20061;-39
2021/06/30 07:48:38;;;;;;;15.65;10.70;;;16.90;99.90;;;;;;12392211;28;20513;-40
2021/06/30 07:54:39;;;;;;;17.80;11.27;;;17.20;99.90;;;;;;12390937;28;20133;-40
2021/06/30 08:00:41;;;;;;;23.60;13.15;;;17.20;99.90;;;;;;12389086;28;20054;-41
2021/06/30 08:06:43;;;;;;;20.58;14.45;;;17.10;99.90;;;;;;12388689;28;20300;-39
2021/06/30 08:12:45;;;;;;;17.00;13.77;;;17.10;99.90;;;;;;12392137;28;20800;-40
2021/06/30 08:18:48;;;;;;;18.88;14.02;;;17.10;99.90;;;;;;12390019;28;20050;-40
2021/06/30 08:24:50;;;;;;;18.67;15.20;;;17.40;99.90;;;;;;12390585;28;20091;-39
2021/06/30 08:30:52;;;;;;;17.73;15.32;;;17.60;99.90;;;;;;12394866;28;20057;-39
2021/06/30 08:37:19;;;;;;;23.67;17.85;;;17.70;99.90;;;;;;12389960;28;20038;-39
2021/06/30 08:43:18;;;;;;;21.77;17.70;;;17.80;99.90;;;;;;12393019;28;20133;-39
2021/06/30 08:49:23;;;;;;;20.90;13.98;;;17.70;99.90;;;;;;12392495;28;20543;-40
2021/06/30 08:55:25;;;;;;;21.48;14.95;;;18.10;99.90;;;;;;12390820;28;20054;-40
2021/06/30 09:01:28;;;;;;;21.75;16.80;;;18.10;99.90;;;;;;12389280;28;20103;-39
2021/06/30 09:07:30;;;;;;;18.53;15.27;;;18.10;99.90;;;;;;12393496;28;20145;-40
2021/06/30 09:13:32;;;;;;;18.15;15.18;;;18.20;99.90;;;;;;12389601;28;20162;-42
2021/06/30 09:19:56;;;;;;;19.33;16.88;;;18.00;99.90;;;;;;12385501;28;20141;-41
2021/06/30 09:26:02;;;;;;;23.75;17.23;;;17.90;99.90;;;;;;12389956;28;20479;-40
2021/06/30 09:32:12;;;;;;;19.45;16.67;;;17.90;99.90;;;;;;12387335;28;20057;-40
2021/06/30 09:38:30;;;;;;;21.15;15.05;;;17.90;99.90;;;;;;12386687;28;20058;-39
2021/06/30 09:44:33;;;;;;;18.95;15.40;;;17.80;99.90;;;;;;12392961;28;20042;-39
2021/06/30 09:50:39;;;;;;;18.25;15.68;;;17.80;99.90;;;;;;12389818;28;20137;-40
2021/06/30 09:57:03;;;;;;;20.92;16.20;;;18.10;99.90;;;;;;12389793;28;20046;-40
2021/06/30 10:03:05;;;;;;;22.00;15.97;;;18.20;99.90;;;;;;12393597;28;20054;-39
2021/06/30 10:09:07;;;;;;;19.90;16.27;;;18.40;99.90;;;;;;12391749;28;20046;-39
2021/06/30 10:15:09;;;;;;;18.30;15.20;;;18.50;99.90;;;;;;12399215;28;20054;-39
2021/06/30 10:21:11;;;;;;;20.23;16.95;;;18.60;99.90;;;;;;12399717;28;20065;-40
2021/06/30 10:27:14;;;;;;;17.55;15.60;;;18.70;99.90;;;;;;12395898;28;20141;-40
2021/06/30 10:33:34;;;;;;;18.13;15.00;;;19.00;99.90;;;;;;12393816;28;20137;-41
2021/06/30 10:39:35;;;;;;;15.15;13.55;;;19.30;99.90;;;;;;12397245;28;20046;-39
2021/06/30 10:45:38;;;;;;;15.40;13.82;;;;;;;;;;12397068;28;20046;-39
2021/06/30 10:51:44;;;;;;;15.07;13.55;;;19.60;99.90;;;;;;12397250;28;20664;-40
2021/06/30 10:57:46;;;;;;;15.80;13.68;;;19.90;99.90;;;;;;12393357;28;20461;-39
2021/06/30 11:03:54;;;;;;;14.23;12.70;;;20.00;99.90;;;;;;12386201;28;20099;-40
2021/06/30 11:09:55;;;;;;;13.55;12.15;;;20.10;99.90;;;;;;12390652;28;20049;-39
2021/06/30 11:15:58;;;;;;;16.35;13.00;;;20.20;99.90;;;;;;12398044;28;20072;-40
2021/06/30 11:22:25;;;;;;;14.38;11.15;;;20.20;99.90;;;;;;12394925;28;20058;-41
2021/06/30 11:28:35;;;;;;;11.40;10.20;;;20.30;99.90;;;;;;12396943;28;20988;-41
2021/06/30 11:34:38;;;;;;;10.07;9.00;;;20.50;99.90;;;;;;12390417;28;20136;-40
2021/06/30 11:40:50;;;;;;;11.53;9.70;;;20.60;99.90;;;;;;12393423;28;20042;-39
2021/06/30 11:47:01;;;;;;;9.65;8.65;;;20.60;99.90;;;;;;12392027;28;20100;-40
2021/06/30 11:53:03;;;;;;;7.68;6.70;;;20.60;99.90;;;;;;12394763;28;20046;-40
2021/06/30 11:59:17;;;;;;;9.07;6.93;;;20.90;99.90;;;;;;12392733;28;20148;-40
2021/06/30 12:05:20;;;;;;;7.70;6.22;;;21.10;99.90;;;;;;12388040;28;20042;-40
2021/06/30 12:11:33;;;;;;;7.55;6.72;;;21.10;99.90;;;;;;12392047;28;20046;-40
2021/06/30 12:17:35;;;;;;;6.35;5.70;;;21.20;99.90;;;;;;12392866;28;20576;-41
2021/06/30 12:23:40;;;;;;;6.97;5.38;;;21.30;99.90;;;;;;12389487;28;20057;-41
2021/06/30 12:29:42;;;;;;;7.47;5.82;;;21.20;99.90;;;;;;12393821;28;20136;-40
2021/06/30 12:35:48;;;;;;;7.25;5.53;;;21.30;99.90;;;;;;12390554;28;20057;-42
2021/06/30 12:41:52;;;;;;;7.50;6.80;;;21.30;99.90;;;;;;12394013;28;20045;-42
2021/06/30 12:47:58;;;;;;;7.43;6.60;;;21.20;99.90;;;;;;12390095;28;20062;-40
2021/06/30 12:54:04;;;;;;;8.65;5.95;;;21.00;99.90;;;;;;12390689;28;20050;-42
2021/06/30 13:00:19;;;;;;;8.25;7.25;;;21.10;99.90;;;;;;12381898;28;20073;-40
2021/06/30 13:06:25;;;;;;;7.53;6.78;;;21.20;99.90;;;;;;12386008;28;20049;-40
2021/06/30 13:12:27;;;;;;;8.45;7.55;;;21.20;99.90;;;;;;12380073;28;20046;-40
2021/06/30 13:18:44;;;;;;;11.00;9.90;;;21.40;99.90;;;;;;12386018;28;20082;-40
2021/06/30 13:24:52;;;;;;;11.80;10.10;;;21.20;99.90;;;;;;12390064;28;20048;-40
2021/06/30 13:37:14;;;;;;;10.30;9.30;;;21.00;99.90;;;;;;12383143;28;20046;-40
2021/06/30 13:43:16;;;;;;;10.65;9.50;;;21.10;99.90;;;;;;12386160;28;20059;-41
2021/06/30 13:49:20;;;;;;;8.93;8.13;;;21.10;99.90;;;;;;12395248;28;20089;-41
2021/06/30 13:55:24;;;;;;;11.10;9.95;;;21.20;99.90;;;;;;12382314;28;20468;-40
2021/06/30 14:01:26;;;;;;;12.68;10.00;;;21.30;99.90;;;;;;12382810;28;20054;-40
2021/06/30 14:07:28;;;;;;;10.88;9.88;;;21.20;99.90;;;;;;12386500;28;20084;-41
2021/06/30 14:13:30;;;;;;;13.25;11.75;;;21.00;99.90;;;;;;12391322;28;20728;-39
2021/06/30 14:19:32;;;;;;;11.90;10.73;;;20.90;99.90;;;;;;12382524;28;20409;-41
2021/06/30 14:25:35;;;;;;;11.85;10.32;;;20.80;99.90;;;;;;12388397;28;20054;-40
2021/06/30 14:31:38;;;;;;;12.57;10.60;;;21.00;99.90;;;;;;12387806;28;20050;-40
2021/06/30 14:37:41;;;;;;;13.88;10.70;;;20.80;99.90;;;;;;12390270;28;20054;-41
2021/06/30 14:43:43;;;;;;;10.20;8.73;;;20.60;99.90;;;;;;12390121;28;20582;-40
2021/06/30 14:49:46;;;;;;;9.02;8.13;;;20.40;99.90;;;;;;12379441;28;20141;-40
2021/06/30 14:55:47;;;;;;;10.63;7.75;;;20.20;99.90;;;;;;12384984;28;20180;-40
2021/06/30 15:01:49;;;;;;;9.18;7.50;;;20.10;99.90;;;;;;12388890;28;20053;-40
2021/06/30 15:07:52;;;;;;;10.23;8.00;;;20.10;99.90;;;;;;12391159;28;20111;-40
2021/06/30 15:13:55;;;;;;;7.93;6.57;;;20.10;99.90;;;;;;12388125;28;20049;-40
2021/06/30 15:19:58;;;;;;;6.68;5.88;;;20.00;99.90;;;;;;12388659;28;20054;-41
2021/06/30 15:26:00;;;;;;;5.47;4.95;;;20.10;99.90;;;;;;12388151;28;20806;-40
2021/06/30 15:32:02;;;;;;;5.97;5.10;;;20.10;99.90;;;;;;12388290;28;20494;-40
2021/06/30 15:38:04;;;;;;;7.95;5.47;;;19.90;99.90;;;;;;12383734;28;20050;-40
2021/06/30 15:44:06;;;;;;;6.93;4.55;;;19.80;99.90;;;;;;12388791;28;20053;-40
2021/06/30 15:50:09;;;;;;;5.25;4.75;;;19.80;99.90;;;;;;12390112;28;20068;-40
2021/06/30 15:56:11;;;;;;;7.80;5.90;;;19.90;99.90;;;;;;12387967;28;20050;-40
2021/06/30 16:02:13;;;;;;;7.88;6.00;;;19.90;99.90;;;;;;12382859;28;20049;-40
2021/06/30 16:08:14;;;;;;;6.70;6.00;;;19.80;99.90;;;;;;12388686;28;20949;-40
2021/06/30 16:14:16;;;;;;;6.22;5.63;;;19.70;99.90;;;;;;12391967;28;20054;-40
2021/06/30 16:20:19;;;;;;;8.40;6.17;;;19.70;99.90;;;;;;12390010;28;20100;-41
2021/06/30 16:26:22;;;;;;;6.28;5.68;;;19.70;99.90;;;;;;12383772;28;20077;-40
2021/06/30 16:32:24;;;;;;;6.30;5.60;;;19.70;99.90;;;;;;12386619;28;20566;-41
2021/06/30 16:38:26;;;;;;;6.95;4.95;;;19.60;99.90;;;;;;12386052;28;20046;-40
2021/06/30 16:44:30;;;;;;;5.90;5.18;;;19.50;99.90;;;;;;12390046;28;20096;-40
2021/06/30 16:50:33;;;;;;;6.13;5.30;;;19.60;99.90;;;;;;12383205;28;20145;-40
2021/06/30 16:56:35;;;;;;;5.73;5.10;;;19.50;99.90;;;;;;12389820;28;20058;-40
2021/06/30 17:02:37;;;;;;;6.55;5.50;;;19.40;99.90;;;;;;12396005;28;20103;-42
2021/06/30 17:08:39;;;;;;;5.78;5.03;;;19.30;99.90;;;;;;12388511;28;20471;-42
2021/06/30 17:14:43;;;;;;;5.95;5.35;;;19.40;99.90;;;;;;12390108;28;20038;-40
2021/06/30 17:20:45;;;;;;;5.10;4.10;;;19.30;99.90;;;;;;12389022;28;20054;-39
2021/06/30 17:26:46;;;;;;;4.70;4.20;;;19.30;99.90;;;;;;12405518;28;20105;-41
2021/06/30 17:32:54;;;;;;;7.20;5.00;;;19.30;99.90;;;;;;12399951;28;20150;-40
2021/06/30 17:38:56;;;;;;;5.78;5.07;;;19.10;99.90;;;;;;12400558;28;20050;-40
2021/06/30 17:44:58;;;;;;;6.20;4.90;;;19.00;99.90;;;;;;12401264;28;20100;-41
2021/06/30 17:51:01;;;;;;;6.93;4.50;;;19.00;99.90;;;;;;12396056;28;20092;-40
2021/06/30 17:57:05;;;;;;;8.25;4.28;;;19.00;99.90;;;;;;12401658;28;20521;-40
2021/06/30 18:03:07;;;;;;;5.63;4.38;;;18.70;99.90;;;;;;12401090;28;20053;-39
2021/06/30 18:09:08;;;;;;;6.40;4.10;;;18.70;99.90;;;;;;12396723;28;20050;-40
2021/06/30 18:15:12;;;;;;;7.10;5.47;;;18.60;99.90;;;;;;12399484;28;20054;-39
2021/06/30 18:21:14;;;;;;;8.63;6.65;;;18.50;99.90;;;;;;12395507;28;20054;-40
2021/06/30 18:27:16;;;;;;;11.05;8.45;;;18.30;99.90;;;;;;12396516;28;20050;-41
2021/06/30 18:33:18;;;;;;;10.73;8.18;;;18.10;99.90;;;;;;12395857;28;20596;-40
2021/06/30 18:39:19;;;;;;;13.93;9.07;;;18.10;99.90;;;;;;12399734;28;20101;-40
2021/06/30 18:45:22;;;;;;;14.82;10.65;;;18.00;99.90;;;;;;12397119;28;20562;-40
2021/06/30 18:51:24;;;;;;;12.00;9.07;;;17.80;99.90;;;;;;12393061;28;20100;-40
2021/06/30 18:57:26;;;;;;;19.23;13.30;;;17.80;99.90;;;;;;12399342;28;20133;-40
2021/06/30 19:03:31;;;;;;;24.00;16.05;;;17.70;99.90;;;;;;12397081;28;20053;-39
2021/06/30 19:09:33;;;;;;;25.65;16.65;;;17.70;99.90;;;;;;12393178;28;20545;-39
2021/06/30 19:15:35;;;;;;;26.73;16.52;;;17.50;99.90;;;;;;12388953;28;20054;-40
2021/06/30 19:21:38;;;;;;;22.60;16.17;;;17.50;99.90;;;;;;12390929;28;20053;-39
2021/06/30 19:27:42;;;;;;;20.80;14.85;;;17.40;99.90;;;;;;12398423;28;20046;-41
2021/06/30 19:33:44;;;;;;;16.75;11.85;;;17.30;99.90;;;;;;12396175;28;20521;-39
2021/06/30 19:39:46;;;;;;;18.73;12.40;;;17.10;99.90;;;;;;12393589;28;20046;-39
2021/06/30 19:45:48;;;;;;;19.02;11.60;;;17.00;99.90;;;;;;12395927;28;20046;-40
2021/06/30 19:51:58;;;;;;;17.58;11.55;;;16.80;99.90;;;;;;12389239;28;20046;-39
2021/06/30 19:58:00;;;;;;;16.25;10.80;;;16.80;99.90;;;;;;12391794;28;20132;-40
2021/06/30 20:04:01;;;;;;;14.65;10.77;;;16.70;99.90;;;;;;12393057;28;20057;-41
2021/06/30 20:10:05;;;;;;;16.88;11.20;;;16.70;99.90;;;;;;12394504;28;20962;-40
2021/06/30 20:16:07;;;;;;;13.67;10.50;;;16.70;99.90;;;;;;12391731;28;20053;-40
2021/06/30 20:22:09;;;;;;;14.30;10.20;;;16.50;99.90;;;;;;12396253;28;20307;-41
2021/06/30 20:28:10;;;;;;;13.75;9.65;;;16.50;99.90;;;;;;12385834;28;20050;-41
2021/06/30 20:34:12;;;;;;;12.85;9.48;;;16.50;99.90;;;;;;12391977;28;20099;-38
2021/06/30 20:40:14;;;;;;;13.82;9.15;;;16.50;99.90;;;;;;12384245;28;20486;-39
2021/06/30 20:46:16;;;;;;;11.55;9.23;;;16.40;99.90;;;;;;12395629;28;20410;-39
2021/06/30 20:52:18;;;;;;;15.18;10.02;;;16.40;99.90;;;;;;12392055;28;20740;-40
2021/06/30 20:58:20;;;;;;;14.30;9.93;;;16.20;99.90;;;;;;12392729;28;20050;-39
2021/06/30 21:04:21;;;;;;;13.02;9.85;;;16.10;99.90;;;;;;12388795;28;20582;-39
2021/06/30 21:10:23;;;;;;;14.25;10.07;;;16.10;99.90;;;;;;12389840;28;20348;-40
2021/06/30 21:16:25;;;;;;;13.23;9.07;;;16.10;99.90;;;;;;12388935;28;20155;-41
2021/06/30 21:22:27;;;;;;;11.63;8.55;;;16.00;99.90;;;;;;12389084;28;20046;-40
2021/06/30 21:28:29;;;;;;;12.23;7.72;;;16.00;99.90;;;;;;12387866;28;20220;-40
2021/06/30 21:34:33;;;;;;;9.10;7.50;;;16.00;99.90;;;;;;12383078;28;20058;-39
2021/06/30 21:40:35;;;;;;;;;;;15.90;99.90;;;;;;12390564;28;20049;-40
2021/06/30 21:46:37;;;;;;;10.05;7.32;;;15.90;99.90;;;;;;12393737;28;19935;-41
2021/06/30 21:52:39;;;;;;;8.73;6.80;;;15.90;99.90;;;;;;12391954;28;20407;-41
2021/06/30 21:58:41;;;;;;;7.65;6.30;;;15.90;99.90;;;;;;12393373;28;20133;-40
2021/06/30 22:04:43;;;;;;;10.30;6.40;;;15.70;99.90;;;;;;12387718;28;20079;-41
2021/06/30 22:10:44;;;;;;;7.60;6.07;;;15.60;99.90;;;;;;12399188;28;20617;-40
2021/06/30 22:16:46;;;;;;;8.35;6.72;;;15.60;99.90;;;;;;12397225;28;20104;-40
2021/06/30 22:22:56;;;;;;;9.85;7.18;;;15.60;99.90;;;;;;12400910;28;20053;-39
2021/06/30 22:29:03;;;;;;;9.27;6.75;;;15.50;99.90;;;;;;12393394;28;20103;-39
2021/06/30 22:35:05;;;;;;;7.10;6.40;;;15.40;99.90;;;;;;12394725;28;20080;-39
2021/06/30 22:41:07;;;;;;;10.55;6.70;;;15.50;99.90;;;;;;12396264;28;20050;-40
2021/06/30 22:47:09;;;;;;;9.93;5.70;;;15.50;99.90;;;;;;12400774;28;20153;-40
2021/06/30 22:53:10;;;;;;;7.07;4.72;;;15.40;99.90;;;;;;12396895;28;20133;-40
2021/06/30 22:59:16;;;;;;;6.20;5.40;;;15.30;99.90;;;;;;12397265;28;20387;-39
2021/06/30 23:05:18;;;;;;;6.30;4.22;;;15.40;99.90;;;;;;12390540;28;20561;-41
2021/06/30 23:11:20;;;;;;;7.18;4.75;;;15.30;99.90;;;;;;12395146;28;20072;-39
2021/06/30 23:17:22;;;;;;;7.28;4.70;;;15.30;99.90;;;;;;12395809;28;20047;-40
2021/06/30 23:23:23;;;;;;;6.03;4.20;;;15.20;99.90;;;;;;12393812;28;20046;-41
2021/06/30 23:29:25;;;;;;;6.30;4.05;;;15.10;99.90;;;;;;12394221;28;21009;-40
2021/06/30 23:35:27;;;;;;;9.40;4.13;;;15.10;99.90;;;;;;12390279;28;20399;-40
2021/06/30 23:41:29;;;;;;;7.25;4.22;;;15.10;99.90;;;;;;12391694;28;20046;-40
2021/06/30 23:47:31;;;;;;;8.27;4.50;;;15.10;99.90;;;;;;12392596;28;20149;-40
2021/06/30 23:53:34;;;;;;;6.78;4.45;;;15.10;99.90;;;;;;12394904;28;20057;-42
2021/06/30 23:59:36;;;;;;;6.93;4.90;;;15.10;99.90;;;;;;12388479;28;20062;-41
